Time;durP1;ratioP1;P1;durP2;ratioP2;P2;SDS_P1;SDS_P2;PMS_P1;PMS_P2;Temp;Humidity;BMP_temperature;BMP_pressure;BME280_temperature;BME280_humidity;BME280_pressure;Samples;Min_cycle;Max_cycle;Signal;HPM_P1;HPM_P2
2021/11/13 00:01:02;;;;;;;49.27;32.07;;;;;;;4.70;100.00;100811.75;1739926;81;21073;-72
2021/11/13 00:03:29;;;;;;;51.40;33.03;;;;;;;4.71;100.00;100813.44;1759300;81;21064;-71
2021/11/13 00:05:56;;;;;;;57.43;34.40;;;;;;;4.71;100.00;100814.78;1747422;82;21033;-71
2021/11/13 00:08:23;;;;;;;53.43;32.63;;;;;;;4.70;100.00;100815.27;1718782;83;21548;-71
2021/11/13 00:10:52;;;;;;;48.67;30.87;;;;;;;4.68;100.00;100814.53;1748106;82;21507;-72
2021/11/13 00:13:21;;;;;;;48.50;31.10;;;;;;;4.70;100.00;100817.11;1713687;83;21039;-72
2021/11/13 00:15:49;;;;;;;56.33;33.57;;;;;;;4.71;100.00;100817.00;1710093;83;21018;-71
2021/11/13 00:18:18;;;;;;;56.87;33.17;;;;;;;4.72;100.00;100816.50;1718491;83;21002;-71
2021/11/13 00:20:48;;;;;;;61.37;37.00;;;;;;;4.71;100.00;100819.67;1717098;83;21042;-72
2021/11/13 00:23:15;;;;;;;57.90;34.73;;;;;;;4.70;100.00;100819.29;1718083;83;21488;-72
2021/11/13 00:25:42;;;;;;;59.83;34.83;;;;;;;4.69;100.00;100818.06;1717776;83;21007;-72
2021/11/13 00:28:10;;;;;;;57.50;34.90;;;;;;;4.70;100.00;100822.46;1709156;83;21057;-72
2021/11/13 00:30:41;;;;;;;61.87;36.40;;;;;;;4.69;100.00;100825.63;1718557;83;21046;-72
2021/11/13 00:33:07;;;;;;;65.20;38.43;;;;;;;4.69;100.00;100817.59;1719450;83;21476;-71
2021/11/13 00:35:35;;;;;;;66.83;39.37;;;;;;;4.68;100.00;100821.73;1721176;83;21050;-72
2021/11/13 00:38:02;;;;;;;64.00;38.00;;;;;;;4.66;100.00;100819.66;1723221;83;21057;-72
2021/11/13 00:40:29;;;;;;;60.13;35.47;;;;;;;4.64;100.00;100814.86;1720455;83;21050;-72
2021/11/13 00:42:56;;;;;;;54.77;31.97;;;;;;;4.62;100.00;100815.47;1705079;83;21058;-72
2021/11/13 00:45:23;;;;;;;52.27;32.87;;;;;;;4.59;100.00;100811.70;1716813;83;21532;-70
2021/11/13 00:47:49;;;;;;;49.87;31.07;;;;;;;4.58;100.00;100816.67;1689463;83;21033;-71
2021/11/13 00:50:16;;;;;;;49.73;31.53;;;;;;;4.58;100.00;100818.02;1718372;83;21021;-73
2021/11/13 00:52:43;;;;;;;51.83;31.13;;;;;;;4.58;100.00;100814.84;1762386;81;21518;-72
2021/11/13 00:55:11;;;;;;;44.77;27.40;;;;;;;4.58;100.00;100822.03;1754505;80;20997;-72
2021/11/13 00:57:38;;;;;;;44.67;27.37;;;;;;;4.55;100.00;100815.94;1714072;83;21043;-72
2021/11/13 01:00:06;;;;;;;43.60;27.73;;;;;;;4.55;100.00;100814.59;1750347;81;21095;-72
2021/11/13 01:02:35;;;;;;;47.40;29.13;;;;;;;4.56;100.00;100818.12;1746998;81;21034;-72
2021/11/13 01:05:01;;;;;;;46.80;30.70;;;;;;;4.57;100.00;100818.51;1747182;82;21030;-72
2021/11/13 01:07:28;;;;;;;48.97;29.40;;;;;;;4.56;100.00;100815.44;1749364;82;21022;-72
2021/11/13 01:09:55;;;;;;;46.03;29.07;;;;;;;4.54;100.00;100821.41;1745671;82;21042;-71
2021/11/13 01:12:21;;;;;;;43.47;26.77;;;;;;;4.54;100.00;100824.08;1747204;82;21453;-72
2021/11/13 01:14:48;;;;;;;43.67;26.77;;;;;;;4.54;100.00;100819.57;1740441;82;20998;-72
2021/11/13 01:17:16;;;;;;;45.20;27.70;;;;;;;4.56;100.00;100828.84;1745557;82;21026;-71
2021/11/13 01:19:47;;;;;;;48.47;28.60;;;;;;;4.57;100.00;100830.56;1744073;82;21022;-72
2021/11/13 01:22:16;;;;;;;45.13;28.33;;;;;;;4.58;100.00;100832.75;1739132;82;21031;-71
2021/11/13 01:24:45;;;;;;;48.27;29.77;;;;;;;4.57;100.00;100829.22;1741774;82;21085;-71
2021/11/13 01:27:14;;;;;;;49.47;27.77;;;;;;;4.57;100.00;100834.58;1740390;82;21038;-72
2021/11/13 01:29:42;;;;;;;45.50;28.40;;;;;;;4.56;100.00;100830.17;1746985;82;21521;-71
2021/11/13 01:32:11;;;;;;;43.83;27.07;;;;;;;4.55;100.00;100829.79;1751554;82;21050;-72
2021/11/13 01:34:40;;;;;;;44.07;27.37;;;;;;;4.55;100.00;100826.65;1745434;82;21536;-71
2021/11/13 01:37:07;;;;;;;43.13;26.97;;;;;;;4.56;100.00;100826.16;1745183;82;21507;-72
2021/11/13 01:39:36;;;;;;;44.13;28.20;;;;;;;4.55;100.00;100823.97;1747317;82;21532;-72
2021/11/13 01:42:04;;;;;;;42.03;26.07;;;;;;;4.54;100.00;100826.27;1737606;82;20995;-71
2021/11/13 01:44:33;;;;;;;42.63;26.20;;;;;;;4.53;100.00;100827.72;1758169;81;21060;-73
2021/11/13 01:47:00;;;;;;;41.30;24.60;;;;;;;4.51;100.00;100830.50;1762135;81;21073;-72
2021/11/13 01:49:27;;;;;;;43.53;26.90;;;;;;;4.52;100.00;100834.91;1753442;81;21050;-72
2021/11/13 01:51:55;;;;;;;39.47;25.07;;;;;;;4.52;100.00;100830.88;1747861;81;21030;-72
2021/11/13 01:54:23;;;;;;;42.43;26.83;;;;;;;4.51;100.00;100828.31;1748046;82;21045;-73
2021/11/13 01:56:51;;;;;;;39.77;24.13;;;;;;;4.51;100.00;100829.16;1717612;83;21524;-72
2021/11/13 01:59:21;;;;;;;39.27;24.27;;;;;;;4.49;100.00;100830.25;1753216;82;21157;-71
2021/11/13 02:01:49;;;;;;;39.70;23.60;;;;;;;4.48;100.00;100828.53;1750946;81;21010;-72
2021/11/13 02:04:16;;;;;;;40.83;24.03;;;;;;;4.46;100.00;100834.48;1753052;82;21007;-72
2021/11/13 02:06:42;;;;;;;38.17;23.23;;;;;;;4.43;100.00;100833.40;1752673;81;21069;-71
2021/11/13 02:09:09;;;;;;;38.50;22.97;;;;;;;4.41;100.00;100834.84;1754317;81;21503;-71
2021/11/13 02:11:36;;;;;;;39.37;23.43;;;;;;;4.39;100.00;100838.09;1755601;81;21481;-71
2021/11/13 02:14:04;;;;;;;37.57;22.63;;;;;;;4.34;100.00;100842.95;1753360;81;21050;-70
2021/11/13 02:16:32;;;;;;;38.17;23.30;;;;;;;4.26;100.00;100838.62;1751817;81;20995;-72
2021/11/13 02:18:59;;;;;;;38.13;23.73;;;;;;;4.18;100.00;100841.87;1751673;81;21030;-72
2021/11/13 02:21:26;;;;;;;38.70;24.20;;;;;;;4.07;100.00;100845.31;1751953;81;21034;-72
2021/11/13 02:23:54;;;;;;;37.73;23.77;;;;;;;3.95;100.00;100843.02;1749379;82;21512;-71
2021/11/13 02:26:22;;;;;;;35.47;23.60;;;;;;;3.81;100.00;100845.81;1752127;81;21050;-71
2021/11/13 02:28:54;;;;;;;40.63;25.43;;;;;;;3.67;100.00;100852.61;1753751;82;21060;-72
2021/11/13 02:31:19;;;;;;;42.67;25.93;;;;;;;3.51;100.00;100852.33;1747836;82;21524;-72
2021/11/13 02:33:47;;;;;;;43.00;26.73;;;;;;;3.38;100.00;100853.66;1756792;81;21555;-70
2021/11/13 02:36:14;;;;;;;39.53;23.90;;;;;;;3.25;100.00;100855.44;1749692;81;21078;-71
2021/11/13 02:38:43;;;;;;;37.87;24.00;;;;;;;3.14;100.00;100856.66;1749590;81;21559;-70
2021/11/13 02:41:11;;;;;;;39.33;23.60;;;;;;;3.03;100.00;100865.40;1750743;82;21042;-72
2021/11/13 02:43:40;;;;;;;37.17;23.23;;;;;;;2.91;100.00;100868.88;1749525;81;21070;-71
2021/11/13 02:46:08;;;;;;;36.67;22.77;;;;;;;2.82;100.00;100877.02;1751247;81;21061;-72
2021/11/13 02:48:39;;;;;;;38.90;23.53;;;;;;;2.75;100.00;100877.05;1749552;82;21018;-71
2021/11/13 02:51:07;;;;;;;37.20;23.57;;;;;;;2.66;100.00;100878.02;1749232;82;21469;-72
2021/11/13 02:53:33;;;;;;;33.87;21.83;;;;;;;2.58;100.00;100882.98;1751383;81;21562;-72
2021/11/13 02:56:03;;;;;;;35.20;23.00;;;;;;;2.51;100.00;100883.00;1751054;81;21045;-72
2021/11/13 02:58:29;;;;;;;36.63;23.47;;;;;;;2.44;100.00;100889.69;1744026;82;21061;-71
2021/11/13 03:01:04;;;;;;;39.40;23.97;;;;;;;2.34;100.00;100885.43;1752662;81;20999;-71
2021/11/13 03:03:31;;;;;;;39.17;22.73;;;;;;;2.26;100.00;100884.56;1712821;83;21137;-71
2021/11/13 03:05:58;;;;;;;38.53;22.87;;;;;;;2.19;100.00;100887.72;1721920;82;21057;-71
2021/11/13 03:08:31;;;;;;;35.77;21.70;;;;;;;2.14;100.00;100889.81;1716865;82;21466;-71
2021/11/13 03:11:02;;;;;;;35.92;22.20;;;;;;;2.07;100.00;100890.22;1717809;83;21077;-71
2021/11/13 03:13:30;;;;;;;35.60;23.50;;;;;;;2.01;100.00;100879.06;1718752;83;21050;-71
2021/11/13 03:16:01;;;;;;;35.60;21.80;;;;;;;1.94;100.00;100895.91;1705580;84;21038;-72
2021/11/13 03:18:28;;;;;;;34.77;21.77;;;;;;;1.91;100.00;100896.09;1703972;84;21129;-71
2021/11/13 03:20:56;;;;;;;34.47;20.77;;;;;;;1.86;100.00;100899.06;1703699;83;21113;-72
2021/11/13 03:23:24;;;;;;;34.27;21.03;;;;;;;1.83;100.00;100899.73;1705143;83;21066;-71
2021/11/13 03:26:07;;;;;;;32.77;21.20;;;;;;;1.79;100.00;100908.39;1702354;84;21039;-72
2021/11/13 03:28:40;;;;;;;34.65;20.88;;;;;;;1.75;100.00;100902.84;1704844;84;21027;-72
2021/11/13 03:31:07;;;;;;;34.53;20.60;;;;;;;1.70;100.00;100903.62;1706063;84;21046;-71
2021/11/13 03:33:38;;;;;;;33.30;20.37;;;;;;;1.65;100.00;100907.05;1707046;84;21615;-72
2021/11/13 03:36:05;;;;;;;35.17;21.83;;;;;;;1.59;100.00;100909.58;1706135;84;21015;-72
2021/11/13 03:38:33;;;;;;;33.70;21.17;;;;;;;1.54;100.00;100913.02;1705582;84;20996;-71
2021/11/13 03:40:59;;;;;;;36.83;21.90;;;;;;;1.48;100.00;100922.70;1705201;84;21049;-72
2021/11/13 03:43:26;;;;;;;33.57;20.60;;;;;;;1.41;100.00;100922.68;1703130;83;21509;-71
2021/11/13 03:45:54;;;;;;;34.33;20.77;;;;;;;1.32;100.00;100920.93;1706245;84;21007;-71
2021/11/13 03:48:20;;;;;;;33.87;21.13;;;;;;;1.26;100.00;100915.98;1706379;84;21015;-71
2021/11/13 03:50:48;;;;;;;35.77;21.93;;;;;;;1.22;100.00;100925.55;1705427;84;21576;-72
2021/11/13 03:53:14;;;;;;;32.90;19.67;;;;;;;1.20;100.00;100922.13;1707048;83;21023;-71
2021/11/13 03:55:42;;;;;;;32.93;19.93;;;;;;;1.19;100.00;100936.38;1705935;83;21905;-71
2021/11/13 03:58:10;;;;;;;29.93;19.87;;;;;;;1.16;100.00;100936.59;1705709;83;21050;-71
2021/11/13 04:00:37;;;;;;;33.83;20.70;;;;;;;1.12;100.00;100935.42;1693558;83;21123;-71
2021/11/13 04:03:03;;;;;;;33.20;21.87;;;;;;;1.10;100.00;100933.81;1665291;86;21120;-72
2021/11/13 04:05:31;;;;;;;34.17;20.80;;;;;;;1.08;100.00;100931.68;1626441;87;21103;-71
2021/11/13 04:07:58;;;;;;;32.93;21.67;;;;;;;1.05;100.00;100933.21;1635712;86;21128;-71
2021/11/13 04:10:25;;;;;;;38.87;23.07;;;;;;;1.01;100.00;100931.20;1724305;81;21065;-71
2021/11/13 04:12:52;;;;;;;35.73;23.10;;;;;;;0.99;100.00;100948.19;1724624;83;21523;-72
2021/11/13 04:15:21;;;;;;;36.47;24.20;;;;;;;0.96;100.00;100937.25;1760149;81;21499;-71
2021/11/13 04:17:49;;;;;;;37.30;24.33;;;;;;;0.92;100.00;100945.02;1762595;81;21069;-71
2021/11/13 04:20:17;;;;;;;38.60;24.93;;;;;;;0.86;100.00;100948.89;1757634;81;21045;-71
2021/11/13 04:22:48;;;;;;;36.53;23.47;;;;;;;0.84;100.00;100949.45;1763158;81;21128;-70
2021/11/13 04:25:15;;;;;;;33.73;21.83;;;;;;;0.80;100.00;100949.70;1733455;83;21014;-71
2021/11/13 04:27:42;;;;;;;34.53;22.40;;;;;;;0.78;100.00;100961.79;1763239;80;21019;-72
2021/11/13 04:30:13;;;;;;;36.07;23.17;;;;;;;0.79;100.00;100956.83;1761936;80;21009;-71
2021/11/13 04:32:45;;;;;;;37.98;26.75;;;;;;;0.78;100.00;100959.58;1761098;80;21057;-71
2021/11/13 04:35:18;;;;;;;41.80;28.17;;;;;;;0.73;100.00;100963.37;1761172;80;20997;-71
2021/11/13 04:37:55;;;;;;;40.27;27.27;;;;;;;0.70;100.00;100968.85;1755496;81;21006;-72
2021/11/13 04:40:34;;;;;;;36.47;23.13;;;;;;;0.65;100.00;100972.23;1751418;81;21052;-71
2021/11/13 04:43:01;;;;;;;37.23;21.70;;;;;;;0.61;100.00;100981.34;1762039;80;21033;-71
2021/11/13 04:45:28;;;;;;;34.47;21.20;;;;;;;0.59;100.00;100983.23;1762639;81;21527;-71
2021/11/13 04:47:56;;;;;;;31.10;19.23;;;;;;;0.60;100.00;100982.75;1756154;81;21065;-72
2021/11/13 04:50:25;;;;;;;31.07;19.03;;;;;;;0.61;100.00;100978.69;1764437;81;21610;-71
2021/11/13 04:52:53;;;;;;;30.60;19.77;;;;;;;0.61;100.00;100977.35;1746192;80;21069;-71
2021/11/13 04:55:19;;;;;;;33.83;19.83;;;;;;;0.63;100.00;100987.92;1779338;80;21022;-71
2021/11/13 04:57:48;;;;;;;32.43;18.97;;;;;;;0.63;100.00;100986.59;1782754;80;21547;-71
2021/11/13 05:00:20;;;;;;;31.60;19.60;;;;;;;0.62;100.00;100991.52;1775550;80;21011;-71
2021/11/13 05:02:48;;;;;;;33.10;19.43;;;;;;;0.61;100.00;100998.65;1752034;81;21035;-71
2021/11/13 05:05:20;;;;;;;31.20;18.47;;;;;;;0.60;100.00;100998.24;1756433;80;21042;-70
2021/11/13 05:07:48;;;;;;;32.63;18.90;;;;;;;0.62;100.00;101004.82;1757282;80;21508;-71
2021/11/13 05:10:15;;;;;;;31.00;18.27;;;;;;;0.61;100.00;101005.78;1715753;82;21450;-71
2021/11/13 05:12:44;;;;;;;31.00;18.67;;;;;;;0.60;100.00;101016.87;1727469;81;21040;-71
2021/11/13 05:15:11;;;;;;;32.17;18.43;;;;;;;0.60;100.00;101012.88;1721314;83;21030;-71
2021/11/13 05:17:38;;;;;;;32.50;17.67;;;;;;;0.61;100.00;101017.28;1720587;83;21487;-71
2021/11/13 05:20:09;;;;;;;31.20;17.80;;;;;;;0.64;100.00;101022.89;1720791;83;20986;-71
2021/11/13 05:22:39;;;;;;;32.35;18.62;;;;;;;0.67;100.00;101026.73;1756062;81;21010;-71
2021/11/13 05:25:09;;;;;;;34.57;19.57;;;;;;;0.75;100.00;101029.36;1722845;83;21057;-72
2021/11/13 05:27:36;;;;;;;37.03;21.77;;;;;;;0.87;100.00;101031.84;1748540;81;21032;-71
2021/11/13 05:30:05;;;;;;;37.77;25.00;;;;;;;1.01;100.00;101027.53;1733806;82;21809;-71
2021/11/13 05:32:34;;;;;;;44.40;29.07;;;;;;;1.19;100.00;101027.84;1745157;82;21845;-72
2021/11/13 05:35:01;;;;;;;56.77;38.50;;;;;;;1.35;100.00;101030.50;1748092;81;21080;-71
2021/11/13 05:37:28;;;;;;;61.47;42.53;;;;;;;1.50;100.00;101030.08;1749376;81;21085;-72
2021/11/13 05:39:54;;;;;;;89.70;58.57;;;;;;;1.60;100.00;101037.94;1756625;81;21551;-72
2021/11/13 05:42:22;;;;;;;111.90;72.37;;;;;;;1.65;100.00;101040.34;1755351;81;21065;-71
2021/11/13 05:44:48;;;;;;;125.03;78.53;;;;;;;1.68;100.00;101041.48;1759607;81;21054;-72
2021/11/13 05:47:15;;;;;;;131.60;80.57;;;;;;;1.69;100.00;101037.88;1747539;81;21049;-72
2021/11/13 05:49:42;;;;;;;104.63;54.73;;;;;;;1.70;100.00;101042.28;1747887;81;21567;-72
2021/11/13 05:52:09;;;;;;;143.10;80.47;;;;;;;1.73;100.00;101038.56;1757193;81;21002;-71
2021/11/13 05:54:36;;;;;;;117.97;63.83;;;;;;;1.76;100.00;101043.23;1757169;81;21026;-71
2021/11/13 05:57:03;;;;;;;101.63;56.70;;;;;;;1.81;100.00;101045.65;1750988;82;21034;-72
2021/11/13 05:59:30;;;;;;;81.03;46.93;;;;;;;1.86;100.00;101044.42;1741834;81;21014;-71
2021/11/13 06:01:58;;;;;;;91.20;54.00;;;;;;;1.93;100.00;101044.05;1777010;79;21559;-71
2021/11/13 06:04:25;;;;;;;66.00;39.90;;;;;;;2.00;100.00;101051.61;1813484;79;21084;-71
2021/11/13 06:06:52;;;;;;;58.60;37.30;;;;;;;2.09;100.00;101063.06;1760227;80;21011;-70
2021/11/13 06:09:19;;;;;;;59.13;35.83;;;;;;;2.20;100.00;101064.23;1764161;80;21352;-70
2021/11/13 06:11:46;;;;;;;83.27;54.03;;;;;;;2.32;100.00;101066.62;1752047;80;20996;-70
2021/11/13 06:14:12;;;;;;;55.33;35.87;;;;;;;2.46;100.00;101066.19;1751216;81;21510;-69
2021/11/13 06:16:40;;;;;;;123.10;74.43;;;;;;;2.60;100.00;101066.67;1757411;81;20998;-69
2021/11/13 06:19:06;;;;;;;92.47;57.50;;;;;;;2.76;100.00;101067.04;1748655;82;21026;-70
2021/11/13 06:21:34;;;;;;;65.80;43.50;;;;;;;2.89;100.00;101070.67;1746301;82;21065;-70
2021/11/13 06:24:00;;;;;;;56.33;37.20;;;;;;;3.04;100.00;101079.03;1741079;81;21006;-69
2021/11/13 06:26:29;;;;;;;42.93;28.63;;;;;;;3.18;100.00;101079.50;1748106;82;21007;-70
2021/11/13 06:28:56;;;;;;;74.27;45.77;;;;;;;3.32;100.00;101077.28;1738759;82;21046;-70
2021/11/13 06:31:23;;;;;;;102.40;54.67;;;;;;;3.45;100.00;101071.98;1735564;81;21512;-69
2021/11/13 06:33:50;;;;;;;161.13;77.73;;;;;;;3.58;100.00;101075.59;1737825;82;21578;-70
2021/11/13 06:36:17;;;;;;;70.70;38.40;;;;;;;3.71;100.00;101072.96;1760052;81;20990;-70
2021/11/13 06:38:44;;;;;;;53.20;30.97;;;;;;;3.83;100.00;101076.65;1760040;81;21487;-70
2021/11/13 06:41:10;;;;;;;36.23;22.07;;;;;;;3.97;100.00;101074.39;1760294;81;21452;-70
2021/11/13 06:43:37;;;;;;;76.53;52.03;;;;;;;4.13;100.00;101070.20;1745390;81;21183;-71
2021/11/13 06:46:04;;;;;;;140.10;91.00;;;;;;;4.34;100.00;101069.22;1736676;81;21070;-71
2021/11/13 06:48:31;;;;;;;138.87;96.03;;;;;;;4.51;100.00;101058.66;1759886;81;21046;-70
2021/11/13 06:50:58;;;;;;;153.97;103.20;;;;;;;4.68;100.00;101057.00;1759195;81;20986;-71
2021/11/13 06:53:24;;;;;;;141.70;105.40;;;;;;;4.86;100.00;101053.98;1737959;82;20982;-71
2021/11/13 06:55:51;;;;;;;81.23;56.83;;;;;;;5.02;100.00;101039.84;1754891;81;21010;-70
2021/11/13 06:58:18;;;;;;;56.10;41.47;;;;;;;5.21;100.00;101038.53;1760199;81;21005;-69
2021/11/13 07:00:45;;;;;;;48.77;34.77;;;;;;;5.40;100.00;101038.01;1764963;80;21045;-69
2021/11/13 07:03:14;;;;;;;42.73;30.37;;;;;;;5.58;100.00;101039.34;1782040;79;20982;-71
2021/11/13 07:05:41;;;;;;;37.17;27.47;;;;;;;5.78;100.00;101037.84;1779428;80;21029;-68
2021/11/13 07:08:08;;;;;;;31.03;20.47;;;;;;;5.96;100.00;101034.27;1780101;80;21519;-70
2021/11/13 07:10:36;;;;;;;45.83;33.60;;;;;;;6.12;100.00;101027.24;1780326;80;21026;-70
2021/11/13 07:13:04;;;;;;;42.73;28.07;;;;;;;6.25;100.00;101023.99;1781797;80;21029;-70
2021/11/13 07:15:31;;;;;;;32.03;18.17;;;;;;;6.40;100.00;101030.48;1779514;81;21018;-70
2021/11/13 07:18:01;;;;;;;44.47;32.03;;;;;;;6.59;100.00;101033.44;1774222;81;21038;-70
2021/11/13 07:20:29;;;;;;;43.63;28.37;;;;;;;6.83;100.00;101027.08;1776991;80;21568;-69
2021/11/13 07:22:56;;;;;;;44.70;33.50;;;;;;;7.07;100.00;101027.45;1780291;80;20975;-70
2021/11/13 07:25:25;;;;;;;49.43;32.53;;;;;;;7.31;100.00;101028.61;1770742;81;21078;-71
2021/11/13 07:27:52;;;;;;;46.17;28.63;;;;;;;7.56;100.00;101023.40;1777283;81;21069;-70
2021/11/13 07:30:20;;;;;;;88.63;56.97;;;;;;;7.78;100.00;101019.78;1780308;81;21058;-71
2021/11/13 07:32:48;;;;;;;71.60;44.87;;;;;;;7.95;100.00;101016.52;1771989;80;21010;-71
2021/11/13 07:35:15;;;;;;;63.53;38.70;;;;;;;8.09;100.00;101011.78;1779302;81;21025;-71
2021/11/13 07:37:42;;;;;;;58.83;36.77;;;;;;;8.19;100.00;101019.45;1775597;80;20998;-71
2021/11/13 07:40:11;;;;;;;67.60;39.60;;;;;;;8.23;100.00;101017.34;1776683;81;21022;-70
2021/11/13 07:42:37;;;;;;;68.23;39.90;;;;;;;8.26;100.00;101016.58;1779894;81;20973;-70
2021/11/13 07:45:07;;;;;;;64.40;43.47;;;;;;;8.39;100.00;101018.22;1775590;81;21050;-71
2021/11/13 07:47:36;;;;;;;45.93;27.97;;;;;;;8.50;100.00;101019.54;1778800;81;20996;-70
2021/11/13 07:50:05;;;;;;;47.67;27.97;;;;;;;8.52;100.00;101022.45;1786942;80;21061;-71
2021/11/13 07:52:32;;;;;;;55.60;29.93;;;;;;;8.51;100.00;101014.49;1785841;80;21054;-71
2021/11/13 08:08:29;;;;;;;48.75;30.80;;;;;;;9.94;100.00;101027.27;1830653;77;22879;-71
2021/11/13 08:10:58;;;;;;;59.03;37.78;;;;;;;10.08;100.00;101036.28;1815250;79;20980;-70
2021/11/13 08:13:25;;;;;;;37.42;22.58;;;;;;;10.14;100.00;101034.01;1805347;79;21070;-69
2021/11/13 08:15:54;;;;;;;33.78;21.97;;;;;;;10.21;100.00;101031.92;1778948;79;21024;-70
2021/11/13 08:18:21;;;;;;;35.92;22.10;;;;;;;10.34;100.00;101037.56;1808313;79;21062;-70
2021/11/13 08:20:49;;;;;;;35.73;23.07;;;;;;;10.38;100.00;101039.00;1810530;79;21046;-70
2021/11/13 08:23:17;;;;;;;41.28;25.50;;;;;;;10.43;100.00;101040.26;1777940;79;21531;-70
2021/11/13 08:25:45;;;;;;;41.80;27.22;;;;;;;10.51;100.00;101043.58;1802290;79;21011;-71
2021/11/13 08:28:12;;;;;;;36.08;23.57;;;;;;;10.54;100.00;101048.70;1761689;80;21103;-70
2021/11/13 08:30:40;;;;;;;34.53;21.57;;;;;;;10.56;100.00;101041.80;1757821;80;21083;-70
2021/11/13 08:33:08;;;;;;;33.30;20.57;;;;;;;10.57;100.00;101039.42;1792051;79;21050;-70
2021/11/13 08:35:37;;;;;;;42.50;27.40;;;;;;;10.57;100.00;101044.36;1785677;79;21085;-70
2021/11/13 08:38:05;;;;;;;29.05;17.62;;;;;;;10.51;100.00;101038.67;1779533;79;21478;-70
2021/11/13 08:40:34;;;;;;;30.37;18.80;;;;;;;10.54;100.00;101037.03;1785856;79;21027;-70
2021/11/13 08:43:02;;;;;;;31.20;18.07;;;;;;;10.53;100.00;101038.87;1764125;80;20987;-70
2021/11/13 08:45:29;;;;;;;74.82;52.67;;;;;;;10.52;100.00;101033.13;1818265;79;21108;-70
2021/11/13 08:47:57;;;;;;;32.13;19.55;;;;;;;10.55;100.00;101035.55;1759907;80;21105;-70
2021/11/13 08:50:26;;;;;;;38.40;22.48;;;;;;;10.71;100.00;101033.57;1801965;79;21090;-70
2021/11/13 08:52:56;;;;;;;44.45;26.60;;;;;;;10.77;100.00;101030.26;1808238;79;21480;-69
2021/11/13 08:55:25;;;;;;;32.15;18.67;;;;;;;10.67;100.00;101032.65;1765901;80;21034;-70
2021/11/13 08:57:52;;;;;;;42.40;26.20;;;;;;;10.55;100.00;101024.73;1741201;79;21550;-70
2021/11/13 09:00:28;;;;;;;29.35;18.20;;;;;;;10.38;100.00;101020.91;1757298;80;21489;-70
2021/11/13 09:02:56;;;;;;;27.93;17.20;;;;;;;10.39;100.00;101024.46;1765568;80;21093;-71
2021/11/13 09:05:24;;;;;;;34.08;19.85;;;;;;;10.43;100.00;101035.36;1803562;79;20984;-70
2021/11/13 09:07:54;;;;;;;30.15;18.75;;;;;;;10.46;100.00;101040.45;1797575;78;21034;-70
2021/11/13 09:10:22;;;;;;;38.95;26.93;;;;;;;10.54;100.00;101037.03;1797878;80;21562;-70
2021/11/13 09:12:50;;;;;;;32.53;21.65;;;;;;;10.66;100.00;101040.40;1797696;80;21011;-70
2021/11/13 09:15:24;;;;;;;25.92;16.35;;;;;;;10.84;100.00;101027.82;1761797;81;20995;-69
2021/11/13 09:17:54;;;;;;;23.45;14.98;;;;;;;11.00;100.00;101025.83;1777836;80;21574;-70
2021/11/13 09:20:21;;;;;;;26.33;16.52;;;;;;;11.06;100.00;101026.56;1771156;80;21002;-68
2021/11/13 09:22:50;;;;;;;40.50;27.05;;;;;;;11.13;100.00;101024.12;1780484;80;20999;-69
2021/11/13 09:25:18;;;;;;;28.67;16.45;;;;;;;11.13;100.00;101026.83;1797219;79;20957;-69
2021/11/13 09:27:45;;;;;;;31.62;19.05;;;;;;;11.20;100.00;101023.35;1774606;78;21050;-70
2021/11/13 09:30:19;;;;;;;32.35;19.12;;;;;;;11.11;100.00;101031.03;1800129;78;20965;-70
2021/11/13 09:32:47;;;;;;;28.38;17.17;;;;;;;10.94;100.00;101019.17;1805438;78;21082;-71
2021/11/13 09:35:15;;;;;;;24.95;15.80;;;;;;;11.00;100.00;101028.02;1769366;80;21004;-71
2021/11/13 09:37:43;;;;;;;36.23;19.85;;;;;;;11.14;100.00;101023.13;1796539;78;21011;-69
2021/11/13 09:40:13;;;;;;;28.15;17.55;;;;;;;11.24;100.00;101024.41;1817342;78;21007;-69
2021/11/13 09:42:42;;;;;;;27.45;16.73;;;;;;;11.19;100.00;101031.14;1781953;78;21151;-70
2021/11/13 09:45:09;;;;;;;29.00;17.62;;;;;;;10.99;100.00;101027.66;1807188;78;21027;-69
2021/11/13 10:01:03;;;;;;;59.20;37.90;;;;;;;11.87;100.00;101034.39;1816834;78;22675;-71
2021/11/13 10:03:32;;;;;;;29.67;19.02;;;;;;;11.96;100.00;101037.03;1757001;80;21081;-71
2021/11/13 10:06:07;;;;;;;24.15;13.98;;;;;;;11.86;100.00;101036.23;1794376;80;20993;-71
2021/11/13 10:08:35;;;;;;;26.55;16.77;;;;;;;11.92;100.00;101031.59;1787561;80;20974;-71
2021/11/13 10:11:08;;;;;;;29.87;17.95;;;;;;;11.86;100.00;101034.88;1804064;77;22204;-70
2021/11/13 10:13:41;;;;;;;37.25;21.62;;;;;;;11.73;100.00;101037.13;1783951;80;21014;-70
2021/11/13 10:16:14;;;;;;;31.80;19.98;;;;;;;11.56;100.00;101034.27;1751801;81;21066;-71
2021/11/13 10:18:52;;;;;;;29.23;19.32;;;;;;;11.31;100.00;101034.98;1714568;84;21095;-71
2021/11/13 10:21:22;;;;;;;23.73;14.83;;;;;;;11.11;100.00;101029.67;1676410;85;21529;-70
2021/11/13 10:23:59;;;;;;;24.02;13.58;;;;;;;11.20;100.00;101028.77;1645151;85;21120;-71
2021/11/13 10:26:36;;;;;;;24.63;13.48;;;;;;;11.34;100.00;101032.83;1634227;86;21045;-69
2021/11/13 10:29:11;;;;;;;22.70;13.38;;;;;;;11.47;100.00;101033.80;1610974;88;21113;-71
2021/11/13 10:31:53;;;;;;;24.85;14.78;;;;;;;11.54;100.00;101040.34;1652656;86;21011;-71
2021/11/13 10:34:27;;;;;;;24.80;15.93;;;;;;;11.56;100.00;101038.81;1648040;86;21094;-70
2021/11/13 10:36:59;;;;;;;29.48;20.02;;;;;;;11.54;100.00;101040.82;1648971;86;21160;-71
2021/11/13 10:39:33;;;;;;;27.55;17.17;;;;;;;11.67;100.00;101033.67;1660864;86;21022;-70
2021/11/13 10:42:06;;;;;;;29.60;19.45;;;;;;;11.69;100.00;101038.45;1659650;85;21530;-70
2021/11/13 10:44:38;;;;;;;56.02;31.82;;;;;;;11.67;100.00;101037.73;1633291;87;21140;-70
2021/11/13 10:47:18;;;;;;;49.33;29.00;;;;;;;11.72;100.00;101029.52;1601260;89;21181;-71
2021/11/13 10:49:46;;;;;;;36.25;25.60;;;;;;;11.83;100.00;101030.27;1600008;89;21077;-71
2021/11/13 10:52:16;;;;;;;36.77;21.50;;;;;;;11.82;100.00;101026.71;1614902;87;21140;-70
2021/11/13 10:54:49;;;;;;;88.70;47.73;;;;;;;11.73;100.00;101025.78;1591003;90;21115;-70
2021/11/13 10:57:29;;;;;;;69.67;38.13;;;;;;;11.79;100.00;101017.53;1582512;90;21057;-69
2021/11/13 10:59:58;;;;;;;104.55;50.92;;;;;;;11.95;100.00;101023.63;1573997;91;21622;-71
2021/11/13 11:02:26;;;;;;;44.25;23.30;;;;;;;12.12;100.00;101026.84;1560809;90;21106;-69
2021/11/13 11:04:53;;;;;;;46.13;28.25;;;;;;;12.26;100.00;101021.35;1605952;88;21168;-70
2021/11/13 11:07:26;;;;;;;63.63;37.15;;;;;;;12.30;100.00;101024.59;1583265;90;21023;-69
2021/11/13 11:10:04;;;;;;;52.33;31.00;;;;;;;12.27;100.00;101015.42;1574778;90;21095;-69
2021/11/13 11:12:34;;;;;;;66.28;39.58;;;;;;;12.36;100.00;101022.63;1582252;90;21053;-69
2021/11/13 11:15:09;;;;;;;47.17;29.07;;;;;;;12.39;100.00;101019.57;1589368;89;21565;-70
2021/11/13 11:17:38;;;;;;;32.88;17.10;;;;;;;12.40;100.00;101015.02;1608733;89;21584;-70
2021/11/13 11:20:14;;;;;;;55.15;35.80;;;;;;;12.41;100.00;101018.06;1595011;89;21122;-71
2021/11/13 11:22:42;;;;;;;37.80;23.22;;;;;;;12.28;100.00;101022.55;1597856;89;21119;-70
2021/11/13 11:25:13;;;;;;;27.85;16.42;;;;;;;12.35;100.00;101017.69;1599684;89;21591;-70
2021/11/13 11:27:48;;;;;;;37.45;23.62;;;;;;;12.38;100.00;101025.16;1604490;88;21067;-70
2021/11/13 11:30:17;;;;;;;30.35;17.92;;;;;;;12.19;100.00;101011.31;1620742;87;21556;-70
2021/11/13 11:32:50;;;;;;;36.90;23.67;;;;;;;11.96;100.00;101015.35;1622286;87;21638;-70
2021/11/13 11:35:21;;;;;;;32.53;20.15;;;;;;;11.94;100.00;101011.95;1603458;88;21099;-70
2021/11/13 11:37:56;;;;;;;32.70;17.67;;;;;;;12.04;100.00;101018.66;1574863;90;21046;-71
2021/11/13 11:40:32;;;;;;;33.28;18.48;;;;;;;12.20;100.00;101018.41;1575894;90;21689;-70